createdAt,value
2019-06-26T00:01:22.757Z,98804.37
2019-06-26T00:04:27.682Z,98798.36
2019-06-26T00:07:32.674Z,98799.33
2019-06-26T00:10:37.591Z,98797.54
2019-06-26T00:13:42.498Z,98800.62
2019-06-26T00:16:47.415Z,98800.92
2019-06-26T00:19:52.394Z,98797.67
2019-06-26T00:22:57.385Z,98794.88
2019-06-26T00:26:02.358Z,98797.87
2019-06-26T00:29:07.333Z,98805.74
2019-06-26T00:32:12.311Z,98809.72
2019-06-26T00:35:17.307Z,98801.15
2019-06-26T00:38:22.227Z,98807.66
2019-06-26T00:41:27.198Z,98808.38
2019-06-26T00:44:32.192Z,98810.70
2019-06-26T00:47:37.175Z,98815.02
2019-06-26T00:50:42.081Z,98811.28
2019-06-26T00:53:47.056Z,98810.64
2019-06-26T00:56:51.957Z,98810.91
2019-06-26T00:59:56.902Z,98815.45
2019-06-26T01:03:01.812Z,98814.96
2019-06-26T01:06:09.172Z,98817.91
2019-06-26T01:09:15.377Z,98811.11
2019-06-26T01:12:20.305Z,98811.83
2019-06-26T01:15:25.290Z,98821.99
2019-06-26T01:18:30.198Z,98816.23
2019-06-26T01:21:35.175Z,98823.27
2019-06-26T01:24:40.092Z,98815.29
2019-06-26T01:27:45.073Z,98810.64
2019-06-26T01:30:49.997Z,98815.12
2019-06-26T01:33:55.010Z,98817.47
2019-06-26T01:37:00.023Z,98822.08
2019-06-26T01:40:05.319Z,98827.92
2019-06-26T01:43:10.229Z,98820.29
2019-06-26T01:46:15.210Z,98828.17
2019-06-26T01:49:20.114Z,98820.87
2019-06-26T01:52:25.056Z,98824.83
2019-06-26T01:55:29.960Z,98819.69
2019-06-26T01:58:34.963Z,98820.13
2019-06-26T02:01:39.876Z,98822.25
2019-06-26T02:04:44.857Z,98820.06
2019-06-26T02:07:49.788Z,98821.72
2019-06-26T02:10:54.770Z,98818.70
2019-06-26T02:13:59.745Z,98824.28
2019-06-26T02:17:04.754Z,98826.77
2019-06-26T02:20:10.192Z,98825.41
2019-06-26T02:23:15.103Z,98823.75
2019-06-26T02:26:20.161Z,98826.73
2019-06-26T02:29:25.268Z,98832.03
2019-06-26T02:32:30.236Z,98827.95
2019-06-26T02:35:35.156Z,98831.73
2019-06-26T02:38:40.089Z,98831.78
2019-06-26T02:41:45.077Z,98838.58
2019-06-26T02:44:53.875Z,98835.02
2019-06-26T02:47:56.634Z,98836.86
2019-06-26T02:51:01.575Z,98842.16
2019-06-26T02:54:06.561Z,98834.84
2019-06-26T02:57:11.566Z,98835.98
2019-06-26T03:00:17.492Z,98832.00
2019-06-26T03:03:22.518Z,98827.92
2019-06-26T03:06:27.408Z,98832.34
2019-06-26T03:09:32.325Z,98829.70
2019-06-26T03:12:37.295Z,98836.72
2019-06-26T03:15:42.444Z,98831.50
2019-06-26T03:18:47.425Z,98836.27
2019-06-26T03:21:52.418Z,98834.75
2019-06-26T03:24:57.320Z,98829.31
2019-06-26T03:28:02.249Z,98833.22
2019-06-26T03:31:07.245Z,98829.31
2019-06-26T03:34:13.783Z,98833.70
2019-06-26T03:37:18.715Z,98829.31
2019-06-26T03:40:23.687Z,98831.72
2019-06-26T03:43:28.665Z,98832.78
2019-06-26T03:46:33.652Z,98830.28
2019-06-26T03:49:38.570Z,98830.06
2019-06-26T03:52:43.656Z,98835.27
2019-06-26T03:55:48.696Z,98836.11
2019-06-26T03:58:53.613Z,98843.12
2019-06-26T04:01:58.534Z,98843.87
2019-06-26T04:05:03.686Z,98846.53
2019-06-26T04:08:08.759Z,98846.67
2019-06-26T04:11:13.848Z,98851.44
2019-06-26T04:14:18.755Z,98852.35
2019-06-26T04:17:23.665Z,98848.63
2019-06-26T04:20:29.428Z,98852.41
2019-06-26T04:23:34.327Z,98850.75
2019-06-26T04:26:46.798Z,98844.64
2019-06-26T04:29:52.113Z,98851.05
2019-06-26T04:32:57.305Z,98850.18
2019-06-26T04:36:04.133Z,98853.55
2019-06-26T04:39:10.742Z,98859.20
2019-06-26T04:42:15.824Z,98856.84
2019-06-26T04:45:21.685Z,98859.25
2019-06-26T04:48:26.963Z,98861.58
2019-06-26T04:51:32.844Z,98863.86
2019-06-26T04:54:37.770Z,98862.16
2019-06-26T04:57:42.761Z,98862.33
2019-06-26T05:00:47.774Z,98861.38
2019-06-26T05:03:52.694Z,98861.89
2019-06-26T05:06:57.593Z,98859.16
2019-06-26T05:10:02.585Z,98864.19
2019-06-26T05:13:07.588Z,98861.77
2019-06-26T05:16:15.733Z,98864.88
2019-06-26T05:19:19.178Z,98865.31
2019-06-26T05:22:24.160Z,98871.97
2019-06-26T05:25:29.135Z,98870.55
2019-06-26T05:28:34.541Z,98870.97
2019-06-26T05:31:39.656Z,98872.76
2019-06-26T05:34:44.640Z,98874.05
2019-06-26T05:37:49.634Z,98867.47
2019-06-26T05:40:54.663Z,98863.38
2019-06-26T05:43:59.558Z,98864.86
2019-06-26T05:47:07.071Z,98870.90
2019-06-26T05:50:13.567Z,98868.27
2019-06-26T05:53:18.480Z,98871.43
2019-06-26T05:56:23.648Z,98875.19
2019-06-26T05:59:28.631Z,98879.68
2019-06-26T06:02:33.629Z,98883.61
2019-06-26T06:05:38.607Z,98881.48
2019-06-26T06:08:44.112Z,98882.91
2019-06-26T06:11:49.010Z,98887.78
2019-06-26T06:14:54.231Z,98891.02
2019-06-26T06:17:59.132Z,98893.70
2019-06-26T06:21:04.486Z,98885.84
2019-06-26T06:24:09.376Z,98890.89
2019-06-26T06:27:14.728Z,98893.87
2019-06-26T06:30:19.910Z,98889.05
2019-06-26T06:33:25.596Z,98895.30
2019-06-26T06:36:30.621Z,98891.02
2019-06-26T06:39:35.628Z,98902.66
2019-06-26T06:42:40.620Z,98905.30
2019-06-26T06:45:46.140Z,98909.51
2019-06-26T06:48:51.086Z,98912.34
2019-06-26T06:51:57.421Z,98916.09
2019-06-26T06:55:02.600Z,98918.16
2019-06-26T06:58:07.633Z,98926.15
2019-06-26T07:01:12.640Z,98925.41
2019-06-26T07:04:17.576Z,98925.61
2019-06-26T07:07:22.554Z,98929.88
2019-06-26T07:10:27.576Z,98928.14
2019-06-26T07:13:32.505Z,98933.03
2019-06-26T07:16:37.430Z,98930.95
2019-06-26T07:19:42.506Z,98925.76
2019-06-26T07:22:48.718Z,98932.16
2019-06-26T07:25:53.877Z,98935.78
2019-06-26T07:28:58.811Z,98933.72
2019-06-26T07:32:03.952Z,98932.80
2019-06-26T07:35:08.959Z,98936.70
2019-06-26T07:38:13.955Z,98936.23
2019-06-26T07:41:19.054Z,98931.98
2019-06-26T07:44:24.234Z,98934.18
2019-06-26T07:47:42.501Z,98937.24
2019-06-26T07:50:35.943Z,98936.80
2019-06-26T07:53:40.985Z,98938.58
2019-06-26T07:56:46.039Z,98941.95
2019-06-26T07:59:51.199Z,98942.54
2019-06-26T08:02:56.129Z,98936.86
2019-06-26T08:06:01.183Z,98940.95
2019-06-26T08:09:06.966Z,98939.96
2019-06-26T08:12:11.926Z,98944.41
2019-06-26T08:15:16.998Z,98943.07
2019-06-26T08:18:21.900Z,98945.01
2019-06-26T08:21:26.898Z,98940.63
2019-06-26T08:24:31.796Z,98935.98
2019-06-26T08:27:36.857Z,98934.69
2019-06-26T08:30:41.756Z,98941.58
2019-06-26T08:33:46.686Z,98941.58
2019-06-26T08:36:51.593Z,98933.87
2019-06-26T08:39:56.492Z,98936.63
2019-06-26T08:43:01.396Z,98936.08
2019-06-26T08:46:06.379Z,98938.31
2019-06-26T08:49:24.763Z,98937.46
2019-06-26T08:52:18.348Z,98936.64
2019-06-26T08:55:23.412Z,98937.46
2019-06-26T08:58:28.324Z,98935.50
2019-06-26T09:01:33.312Z,98933.03
2019-06-26T09:04:38.211Z,98934.13
2019-06-26T09:07:43.250Z,98936.84
2019-06-26T09:10:48.214Z,98934.88
2019-06-26T09:13:53.191Z,98935.63
2019-06-26T09:16:58.165Z,98936.14
2019-06-26T09:20:03.235Z,98934.16
2019-06-26T09:23:08.305Z,98933.51
2019-06-26T09:26:13.248Z,98932.34
2019-06-26T09:29:18.213Z,98928.11
2019-06-26T09:32:23.135Z,98935.16
2019-06-26T09:35:28.253Z,98927.48
2019-06-26T09:38:33.220Z,98931.33
2019-06-26T09:41:38.495Z,98923.44
2019-06-26T09:44:43.517Z,98927.10
2019-06-26T09:47:48.728Z,98926.13
2019-06-26T09:50:53.695Z,98929.17
2019-06-26T09:53:58.928Z,98926.84
2019-06-26T09:57:03.916Z,98919.53
2019-06-26T10:00:09.996Z,98919.76
2019-06-26T10:03:14.908Z,98922.84
2019-06-26T10:06:19.953Z,98919.25
2019-06-26T10:09:24.821Z,98915.58
2019-06-26T10:12:30.039Z,98921.55
2019-06-26T10:15:34.939Z,98919.80
2019-06-26T10:18:40.187Z,98916.69
2019-06-26T10:21:45.051Z,98921.59
2019-06-26T10:24:50.189Z,98913.53
2019-06-26T10:27:55.229Z,98917.39
2019-06-26T10:31:00.269Z,98904.77
2019-06-26T10:34:09.788Z,98907.84
2019-06-26T10:37:12.626Z,98912.19
2019-06-26T10:40:18.635Z,98913.91
2019-06-26T10:43:23.652Z,98905.78
2019-06-26T10:46:29.329Z,98905.23
2019-06-26T10:49:34.438Z,98909.54
2019-06-26T10:52:39.704Z,98901.98
2019-06-26T10:55:44.589Z,98892.89
2019-06-26T10:58:50.179Z,98892.16
2019-06-26T11:01:55.088Z,98890.68
2019-06-26T11:05:00.318Z,98879.83
2019-06-26T11:08:05.278Z,98878.66
2019-06-26T11:11:10.604Z,98880.50
2019-06-26T11:14:15.573Z,98872.75
2019-06-26T11:17:20.846Z,98867.04
2019-06-26T11:20:25.821Z,98865.56
2019-06-26T11:23:31.091Z,98865.27
2019-06-26T11:26:36.038Z,98857.75
2019-06-26T11:29:41.259Z,98856.37
2019-06-26T11:32:46.228Z,98857.15
2019-06-26T11:35:51.506Z,98860.43
2019-06-26T11:38:56.382Z,98847.03
2019-06-26T11:42:01.458Z,98852.41
2019-06-26T11:45:07.232Z,98851.30
2019-06-26T11:48:12.216Z,98856.61
2019-06-26T11:51:17.219Z,98853.59
2019-06-26T11:54:22.519Z,98855.35
2019-06-26T11:57:27.568Z,98849.86
2019-06-26T12:00:32.584Z,98850.65
2019-06-26T12:03:37.764Z,98851.84
2019-06-26T12:06:45.941Z,98853.52
2019-06-26T12:09:49.864Z,98846.88
2019-06-26T12:12:54.800Z,98845.06
2019-06-26T12:16:00.153Z,98844.31
2019-06-26T12:19:05.181Z,98840.63
2019-06-26T12:22:10.642Z,98839.74
2019-06-26T12:25:15.594Z,98845.28
2019-06-26T12:28:22.064Z,98843.07
2019-06-26T12:31:26.953Z,98836.71
2019-06-26T12:34:32.577Z,98840.30
2019-06-26T12:37:38.426Z,98833.72
2019-06-26T12:40:43.452Z,98828.75
2019-06-26T12:43:48.328Z,98823.22
2019-06-26T12:46:53.481Z,98826.83
2019-06-26T12:49:59.131Z,98822.98
2019-06-26T12:53:04.337Z,98820.70
2019-06-26T12:56:09.417Z,98818.44
2019-06-26T12:59:14.329Z,98818.70
2019-06-26T13:02:19.597Z,98818.43
2019-06-26T13:05:24.601Z,98816.91
2019-06-26T13:08:31.461Z,98815.94
2019-06-26T13:11:36.412Z,98814.41
2019-06-26T13:14:41.820Z,98813.05
2019-06-26T13:17:46.710Z,98808.25
2019-06-26T13:20:53.571Z,98809.35
2019-06-26T13:23:58.273Z,98795.42
2019-06-26T13:27:03.458Z,98799.84
2019-06-26T13:30:08.892Z,98795.17
2019-06-26T13:33:14.462Z,98801.27
2019-06-26T13:36:19.351Z,98801.14
2019-06-26T13:39:26.327Z,98792.34
2019-06-26T13:42:31.261Z,98796.05
2019-06-26T13:45:38.039Z,98789.37
2019-06-26T13:48:43.004Z,98788.80
2019-06-26T13:51:48.021Z,98785.98
2019-06-26T13:54:53.091Z,98782.50
2019-06-26T13:57:58.048Z,98779.48
2019-06-26T14:01:03.183Z,98783.93
2019-06-26T14:04:08.150Z,98784.30
2019-06-26T14:07:13.827Z,98771.92
2019-06-26T14:10:19.001Z,98772.78
2019-06-26T14:13:24.444Z,98775.38
2019-06-26T14:16:30.031Z,98772.05
2019-06-26T14:19:35.563Z,98760.84
2019-06-26T14:22:40.548Z,98770.77
2019-06-26T14:25:45.961Z,98769.13
2019-06-26T14:28:53.916Z,98772.52
2019-06-26T14:31:57.998Z,98774.29
2019-06-26T14:35:03.063Z,98777.12
2019-06-26T14:38:08.878Z,98777.45
2019-06-26T14:41:13.922Z,98771.75
2019-06-26T14:44:19.084Z,98773.77
2019-06-26T14:47:24.246Z,98771.19
2019-06-26T14:50:29.281Z,98773.53
2019-06-26T14:53:34.158Z,98772.16
2019-06-26T14:56:40.451Z,98765.23
2019-06-26T14:59:45.525Z,98764.05
2019-06-26T15:02:50.498Z,98767.09
2019-06-26T15:05:55.870Z,98763.07
2019-06-26T15:09:00.773Z,98766.55
2019-06-26T15:12:07.114Z,98755.06
2019-06-26T15:15:12.236Z,98747.66
2019-06-26T15:18:17.853Z,98759.73
2019-06-26T15:21:23.169Z,98756.48
2019-06-26T15:24:29.498Z,98755.93
2019-06-26T15:27:34.468Z,98750.94
2019-06-26T15:30:39.545Z,98743.78
2019-06-26T15:33:44.503Z,98735.31
2019-06-26T15:36:51.308Z,98741.63
2019-06-26T15:39:56.200Z,98731.81
2019-06-26T15:43:01.712Z,98737.78
2019-06-26T15:46:06.679Z,98723.12
2019-06-26T15:49:12.878Z,98721.39
2019-06-26T15:52:17.966Z,98718.94
2019-06-26T15:55:23.066Z,98722.28
2019-06-26T15:58:28.001Z,98721.29
2019-06-26T16:01:33.062Z,98728.43
2019-06-26T16:04:38.692Z,98725.28
2019-06-26T16:07:44.070Z,98731.36
2019-06-26T16:10:52.650Z,98728.31
2019-06-26T16:13:59.048Z,98731.50
2019-06-26T16:17:12.269Z,98725.52
2019-06-26T16:20:17.445Z,98728.76
2019-06-26T16:23:22.436Z,98727.95
2019-06-26T16:26:29.131Z,98726.95
2019-06-26T16:29:34.112Z,98725.72
2019-06-26T16:32:44.404Z,98725.53
2019-06-26T16:35:49.387Z,98726.17
2019-06-26T16:38:54.806Z,98719.38
2019-06-26T16:41:59.779Z,98727.00
2019-06-26T16:45:07.006Z,98722.41
2019-06-26T16:48:11.965Z,98717.95
2019-06-26T16:51:17.347Z,98719.95
2019-06-26T16:54:22.368Z,98722.50
2019-06-26T16:57:27.487Z,98722.25
2019-06-26T17:00:32.472Z,98718.89
2019-06-26T17:03:37.481Z,98721.70
2019-06-26T17:06:42.507Z,98720.19
2019-06-26T17:09:47.811Z,98715.28
2019-06-26T17:12:52.975Z,98714.69
2019-06-26T17:15:58.036Z,98720.86
2019-06-26T17:19:03.149Z,98720.16
2019-06-26T17:22:08.196Z,98724.20
2019-06-26T17:25:13.517Z,98725.31
2019-06-26T17:28:18.613Z,98729.89
2019-06-26T17:31:23.736Z,98730.60
2019-06-26T17:34:28.629Z,98733.66
2019-06-26T17:37:33.925Z,98733.36
2019-06-26T17:40:38.835Z,98732.64
2019-06-26T17:43:44.239Z,98730.80
2019-06-26T17:46:49.163Z,98730.84
2019-06-26T17:49:56.819Z,98732.39
2019-06-26T17:53:01.816Z,98733.88
2019-06-26T17:56:06.878Z,98735.27
2019-06-26T17:59:11.906Z,98732.53
2019-06-26T18:02:16.908Z,98731.64
2019-06-26T18:05:21.996Z,98733.97
2019-06-26T18:08:26.999Z,98731.56
2019-06-26T18:11:32.019Z,98728.72
2019-06-26T18:14:36.959Z,98726.05
2019-06-26T18:17:41.960Z,98734.73
2019-06-26T18:20:46.860Z,98732.38
2019-06-26T18:23:51.846Z,98731.70
2019-06-26T18:26:56.811Z,98733.38
2019-06-26T18:30:02.492Z,98733.48
2019-06-26T18:33:07.600Z,98734.17
2019-06-26T18:36:12.548Z,98731.25
2019-06-26T18:39:17.490Z,98732.19
2019-06-26T18:42:22.379Z,98733.33
2019-06-26T18:45:27.275Z,98736.58
2019-06-26T18:48:32.540Z,98737.97
2019-06-26T18:51:37.709Z,98737.54
2019-06-26T18:54:43.398Z,98735.69
2019-06-26T18:57:48.704Z,98735.51
2019-06-26T19:00:53.700Z,98737.54
2019-06-26T19:03:59.717Z,98731.58
2019-06-26T19:07:04.715Z,98729.45
2019-06-26T19:10:10.423Z,98731.80
2019-06-26T19:13:15.480Z,98734.66
2019-06-26T19:16:21.499Z,98739.39
2019-06-26T19:19:26.532Z,98741.41
2019-06-26T19:22:31.641Z,98742.57
2019-06-26T19:25:36.675Z,98742.63
2019-06-26T19:28:41.761Z,98744.11
2019-06-26T19:31:47.219Z,98745.81
2019-06-26T19:34:52.217Z,98744.25
2019-06-26T19:37:57.128Z,98744.02
2019-06-26T19:41:02.106Z,98752.60
2019-06-26T19:44:08.997Z,98747.72
2019-06-26T19:47:14.617Z,98753.54
2019-06-26T19:50:23.345Z,98754.44
2019-06-26T19:53:27.027Z,98754.50
2019-06-26T19:56:32.493Z,98755.33
2019-06-26T19:59:37.601Z,98765.86
2019-06-26T20:02:42.569Z,98768.11
2019-06-26T20:05:48.028Z,98768.11
2019-06-26T20:08:57.322Z,98767.59
2019-06-26T20:11:59.941Z,98762.66
2019-06-26T20:15:05.394Z,98770.66
2019-06-26T20:18:10.557Z,98772.88
2019-06-26T20:21:15.511Z,98767.95
2019-06-26T20:24:20.551Z,98767.12
2019-06-26T20:27:25.683Z,98772.63
2019-06-26T20:30:32.657Z,98766.32
2019-06-26T20:33:37.759Z,98769.06
2019-06-26T20:36:42.817Z,98773.45
2019-06-26T20:39:48.534Z,98774.55
2019-06-26T20:42:53.475Z,98772.34
2019-06-26T20:45:58.459Z,98766.59
2019-06-26T20:49:03.389Z,98774.81
2019-06-26T20:52:08.286Z,98774.53
2019-06-26T20:55:13.270Z,98777.54
2019-06-26T20:58:18.775Z,98775.89
2019-06-26T21:01:23.749Z,98776.68
2019-06-26T21:04:29.269Z,98777.48
2019-06-26T21:07:34.197Z,98779.64
2019-06-26T21:10:39.228Z,98781.81
2019-06-26T21:13:44.134Z,98783.19
2019-06-26T21:16:49.240Z,98782.36
2019-06-26T21:19:54.221Z,98783.42
2019-06-26T21:22:59.538Z,98783.95
2019-06-26T21:26:04.603Z,98789.70
2019-06-26T21:29:09.639Z,98790.77
2019-06-26T21:32:14.699Z,98789.61
2019-06-26T21:35:19.681Z,98795.08
2019-06-26T21:38:24.663Z,98795.85
2019-06-26T21:41:29.659Z,98792.31
2019-06-26T21:44:34.831Z,98792.00
2019-06-26T21:47:39.850Z,98793.38
2019-06-26T21:50:44.855Z,98794.44
2019-06-26T21:53:49.785Z,98791.13
2019-06-26T21:56:54.803Z,98797.70
2019-06-26T21:59:59.716Z,98796.33
2019-06-26T22:03:04.934Z,98789.45
2019-06-26T22:06:09.973Z,98794.61
2019-06-26T22:09:14.989Z,98786.94
2019-06-26T22:12:20.149Z,98789.68
2019-06-26T22:15:25.155Z,98786.38
2019-06-26T22:18:30.179Z,98797.30
2019-06-26T22:21:35.192Z,98797.55
2019-06-26T22:24:40.253Z,98796.16
2019-06-26T22:27:45.355Z,98799.63
2019-06-26T22:30:50.300Z,98790.30
2019-06-26T22:33:55.234Z,98789.69
2019-06-26T22:37:00.229Z,98791.31
2019-06-26T22:40:05.492Z,98786.91
2019-06-26T22:43:10.397Z,98787.45
2019-06-26T22:46:15.731Z,98789.62
2019-06-26T22:49:20.644Z,98788.25
2019-06-26T22:52:25.736Z,98790.41
2019-06-26T22:55:30.766Z,98792.24
2019-06-26T22:58:35.757Z,98791.08
2019-06-26T23:01:40.921Z,98791.30
2019-06-26T23:04:45.839Z,98794.28
2019-06-26T23:07:51.047Z,98798.55
2019-06-26T23:10:56.039Z,98791.67
2019-06-26T23:14:01.125Z,98790.55
2019-06-26T23:17:06.097Z,98788.94
2019-06-26T23:20:11.085Z,98789.67
2019-06-26T23:23:16.012Z,98798.61
2019-06-26T23:26:24.215Z,98798.66
2019-06-26T23:29:27.604Z,98796.50
2019-06-26T23:32:32.533Z,98804.56
2019-06-26T23:35:37.488Z,98799.87
2019-06-26T23:38:42.368Z,98799.82
2019-06-26T23:41:47.269Z,98803.83
2019-06-26T23:44:52.206Z,98806.92
2019-06-26T23:47:57.108Z,98801.91
2019-06-26T23:51:02.124Z,98804.37
2019-06-26T23:54:07.104Z,98807.39
2019-06-26T23:57:12.019Z,98807.62
